sensor_id;sensor_type;location;lat;lon;timestamp;pressure;altitude;pressure_sealevel;temperature;humidity
23253;BME280;11795;47.054;15.408;2024-03-22T00:00:00;97800;;;11.8;62.7
23253;BME280;11795;47.054;15.408;2024-03-22T00:02:00;97800;;;11.8;62.8
23253;BME280;11795;47.054;15.408;2024-03-22T00:04:00;97800;;;11.7;62.8
23253;BME280;11795;47.054;15.408;2024-03-22T00:06:00;97790;;;11.6;63.2
23253;BME280;11795;47.054;15.408;2024-03-22T00:08:00;97790;;;11.8;62.9
23253;BME280;11795;47.054;15.408;2024-03-22T00:10:00;97790;;;11.6;63.3
23253;BME280;11795;47.054;15.408;2024-03-22T00:12:00;97790;;;11.7;63.3
23253;BME280;11795;47.054;15.408;2024-03-22T00:14:01;97790;;;11.7;63.0
23253;BME280;11795;47.054;15.408;2024-03-22T00:16:00;97790;;;11.6;63.3
23253;BME280;11795;47.054;15.408;2024-03-22T00:18:00;97790;;;11.7;63.1
23253;BME280;11795;47.054;15.408;2024-03-22T00:20:00;97790;;;11.5;63.6
23253;BME280;11795;47.054;15.408;2024-03-22T00:22:00;97790;;;11.6;63.6
23253;BME280;11795;47.054;15.408;2024-03-22T00:24:01;97790;;;11.7;63.0
23253;BME280;11795;47.054;15.408;2024-03-22T00:26:00;97790;;;11.5;63.2
23253;BME280;11795;47.054;15.408;2024-03-22T00:28:00;97800;;;11.6;62.8
23253;BME280;11795;47.054;15.408;2024-03-22T00:30:01;97800;;;11.4;63.4
23253;BME280;11795;47.054;15.408;2024-03-22T00:32:00;97790;;;11.4;63.6
23253;BME280;11795;47.054;15.408;2024-03-22T00:34:00;97800;;;11.3;63.8
23253;BME280;11795;47.054;15.408;2024-03-22T00:36:00;97800;;;11.3;64.0
23253;BME280;11795;47.054;15.408;2024-03-22T00:38:00;97790;;;11.5;63.2
23253;BME280;11795;47.054;15.408;2024-03-22T00:40:00;97800;;;11.3;63.6
23253;BME280;11795;47.054;15.408;2024-03-22T00:42:00;97800;;;11.4;63.7
23253;BME280;11795;47.054;15.408;2024-03-22T00:44:01;97800;;;11.4;63.3
23253;BME280;11795;47.054;15.408;2024-03-22T00:46:03;97800;;;11.3;63.7
23253;BME280;11795;47.054;15.408;2024-03-22T00:48:00;97800;;;11.5;63.1
23253;BME280;11795;47.054;15.408;2024-03-22T00:50:02;97800;;;11.4;63.5
23253;BME280;11795;47.054;15.408;2024-03-22T00:52:00;97800;;;11.4;63.5
23253;BME280;11795;47.054;15.408;2024-03-22T00:54:00;97810;;;11.4;63.1
23253;BME280;11795;47.054;15.408;2024-03-22T00:56:00;97810;;;11.4;63.3
23253;BME280;11795;47.054;15.408;2024-03-22T00:58:00;97810;;;11.5;62.8
23253;BME280;11795;47.054;15.408;2024-03-22T01:00:00;97810;;;11.3;63.5
23253;BME280;11795;47.054;15.408;2024-03-22T01:02:00;97810;;;11.4;63.5
23253;BME280;11795;47.054;15.408;2024-03-22T01:04:00;97810;;;11.5;63.1
23253;BME280;11795;47.054;15.408;2024-03-22T01:06:00;97810;;;11.4;63.3
23253;BME280;11795;47.054;15.408;2024-03-22T01:08:00;97810;;;11.6;62.8
23253;BME280;11795;47.054;15.408;2024-03-22T01:10:00;97810;;;11.4;63.3
23253;BME280;11795;47.054;15.408;2024-03-22T01:12:00;97810;;;11.4;63.5
23253;BME280;11795;47.054;15.408;2024-03-22T01:14:00;97810;;;11.5;63.0
23253;BME280;11795;47.054;15.408;2024-03-22T01:16:00;97810;;;11.4;63.5
23253;BME280;11795;47.054;15.408;2024-03-22T01:18:00;97800;;;11.6;63.0
23253;BME280;11795;47.054;15.408;2024-03-22T01:20:00;97800;;;11.4;63.6
23253;BME280;11795;47.054;15.408;2024-03-22T01:22:00;97800;;;11.4;63.7
23253;BME280;11795;47.054;15.408;2024-03-22T01:24:00;97800;;;11.4;63.4
23253;BME280;11795;47.054;15.408;2024-03-22T01:26:00;97800;;;11.3;63.9
23253;BME280;11795;47.054;15.408;2024-03-22T01:28:00;97800;;;11.6;63.2
23253;BME280;11795;47.054;15.408;2024-03-22T01:30:00;97800;;;11.4;63.7
23253;BME280;11795;47.054;15.408;2024-03-22T01:32:00;97800;;;11.4;64.2
23253;BME280;11795;47.054;15.408;2024-03-22T01:34:00;97800;;;11.4;63.4
23253;BME280;11795;47.054;15.408;2024-03-22T01:36:01;97800;;;11.4;62.6
23253;BME280;11795;47.054;15.408;2024-03-22T01:38:00;97800;;;11.6;62.1
23253;BME280;11795;47.054;15.408;2024-03-22T01:40:00;97800;;;11.5;62.4
23253;BME280;11795;47.054;15.408;2024-03-22T01:42:00;97800;;;11.4;62.6
23253;BME280;11795;47.054;15.408;2024-03-22T01:44:00;97800;;;11.6;62.2
23253;BME280;11795;47.054;15.408;2024-03-22T01:46:00;97800;;;11.5;62.4
23253;BME280;11795;47.054;15.408;2024-03-22T01:48:00;97800;;;11.7;61.6
23253;BME280;11795;47.054;15.408;2024-03-22T01:50:01;97800;;;11.6;61.6
23253;BME280;11795;47.054;15.408;2024-03-22T01:52:00;97800;;;11.6;61.1
23253;BME280;11795;47.054;15.408;2024-03-22T01:54:01;97800;;;11.8;60.6
23253;BME280;11795;47.054;15.408;2024-03-22T01:56:00;97800;;;11.8;60.1
23253;BME280;11795;47.054;15.408;2024-03-22T01:58:00;97790;;;12.0;59.1
23253;BME280;11795;47.054;15.408;2024-03-22T02:00:00;97800;;;11.9;58.9
23253;BME280;11795;47.054;15.408;2024-03-22T02:02:00;97800;;;11.9;58.6
23253;BME280;11795;47.054;15.408;2024-03-22T02:04:00;97790;;;12.1;58.2
23253;BME280;11795;47.054;15.408;2024-03-22T02:06:00;97790;;;12.2;57.6
23253;BME280;11795;47.054;15.408;2024-03-22T02:08:00;97790;;;12.4;56.6
23253;BME280;11795;47.054;15.408;2024-03-22T02:10:00;97780;;;12.4;54.8
23253;BME280;11795;47.054;15.408;2024-03-22T02:12:01;97780;;;12.3;54.9
23253;BME280;11795;47.054;15.408;2024-03-22T02:14:00;97780;;;12.6;53.3
23253;BME280;11795;47.054;15.408;2024-03-22T02:16:02;97780;;;12.5;53.5
23253;BME280;11795;47.054;15.408;2024-03-22T02:18:00;97770;;;12.7;53.3
23253;BME280;11795;47.054;15.408;2024-03-22T02:20:01;97770;;;12.7;52.7
23253;BME280;11795;47.054;15.408;2024-03-22T02:22:00;97780;;;12.7;52.5
23253;BME280;11795;47.054;15.408;2024-03-22T02:24:00;97770;;;12.9;52.0
23253;BME280;11795;47.054;15.408;2024-03-22T02:26:01;97780;;;12.8;52.3
23253;BME280;11795;47.054;15.408;2024-03-22T02:28:00;97780;;;12.9;52.2
23253;BME280;11795;47.054;15.408;2024-03-22T02:30:00;97770;;;12.9;52.4
23253;BME280;11795;47.054;15.408;2024-03-22T02:32:00;97780;;;12.8;52.3
23253;BME280;11795;47.054;15.408;2024-03-22T02:34:00;97770;;;12.9;51.9
23253;BME280;11795;47.054;15.408;2024-03-22T02:36:00;97770;;;12.8;51.6
23253;BME280;11795;47.054;15.408;2024-03-22T02:38:00;97770;;;13.0;50.4
23253;BME280;11795;47.054;15.408;2024-03-22T02:40:00;97770;;;13.0;50.2
23253;BME280;11795;47.054;15.408;2024-03-22T02:42:00;97770;;;12.9;50.6
23253;BME280;11795;47.054;15.408;2024-03-22T02:44:00;97760;;;12.9;50.5
23253;BME280;11795;47.054;15.408;2024-03-22T02:46:00;97770;;;13.0;49.7
23253;BME280;11795;47.054;15.408;2024-03-22T02:48:00;97770;;;13.1;49.5
23253;BME280;11795;47.054;15.408;2024-03-22T02:50:00;97770;;;13.0;49.6
23253;BME280;11795;47.054;15.408;2024-03-22T02:52:00;97770;;;13.0;49.6
23253;BME280;11795;47.054;15.408;2024-03-22T02:54:01;97770;;;13.1;49.5
23253;BME280;11795;47.054;15.408;2024-03-22T02:56:00;97770;;;12.9;49.6
23253;BME280;11795;47.054;15.408;2024-03-22T02:58:00;97770;;;13.1;49.2
23253;BME280;11795;47.054;15.408;2024-03-22T03:00:00;97770;;;13.0;49.4
23253;BME280;11795;47.054;15.408;2024-03-22T03:02:00;97770;;;13.0;49.4
23253;BME280;11795;47.054;15.408;2024-03-22T03:04:00;97770;;;13.1;49.1
23253;BME280;11795;47.054;15.408;2024-03-22T03:06:00;97770;;;13.0;49.2
23253;BME280;11795;47.054;15.408;2024-03-22T03:08:00;97760;;;13.2;48.6
23253;BME280;11795;47.054;15.408;2024-03-22T03:10:00;97760;;;13.2;48.3
23253;BME280;11795;47.054;15.408;2024-03-22T03:12:00;97760;;;13.1;48.8
23253;BME280;11795;47.054;15.408;2024-03-22T03:14:00;97760;;;13.1;48.8
23253;BME280;11795;47.054;15.408;2024-03-22T03:16:00;97760;;;13.0;49.2
23253;BME280;11795;47.054;15.408;2024-03-22T03:18:00;97750;;;13.2;48.1
23253;BME280;11795;47.054;15.408;2024-03-22T03:20:00;97750;;;13.0;48.3
23253;BME280;11795;47.054;15.408;2024-03-22T03:22:00;97750;;;13.0;48.8
23253;BME280;11795;47.054;15.408;2024-03-22T03:24:00;97750;;;13.1;48.5
23253;BME280;11795;47.054;15.408;2024-03-22T03:26:00;97760;;;12.9;48.9
23253;BME280;11795;47.054;15.408;2024-03-22T03:28:00;97750;;;13.1;48.7
23253;BME280;11795;47.054;15.408;2024-03-22T03:30:00;97750;;;12.9;48.8
23253;BME280;11795;47.054;15.408;2024-03-22T03:32:00;97750;;;12.9;48.9
23253;BME280;11795;47.054;15.408;2024-03-22T03:34:00;97750;;;13.0;48.7
23253;BME280;11795;47.054;15.408;2024-03-22T03:36:00;97760;;;13.0;48.8
23253;BME280;11795;47.054;15.408;2024-03-22T03:38:00;97750;;;13.1;48.6
23253;BME280;11795;47.054;15.408;2024-03-22T03:40:00;97750;;;13.0;48.5
23253;BME280;11795;47.054;15.408;2024-03-22T03:42:00;97760;;;12.9;48.4
23253;BME280;11795;47.054;15.408;2024-03-22T03:44:00;97750;;;13.0;48.3
23253;BME280;11795;47.054;15.408;2024-03-22T03:46:00;97750;;;12.9;48.4
23253;BME280;11795;47.054;15.408;2024-03-22T03:48:00;97750;;;13.0;48.4
23253;BME280;11795;47.054;15.408;2024-03-22T03:50:00;97750;;;12.9;48.5
23253;BME280;11795;47.054;15.408;2024-03-22T03:52:00;97760;;;12.8;48.8
23253;BME280;11795;47.054;15.408;2024-03-22T03:54:00;97760;;;12.9;48.6
23253;BME280;11795;47.054;15.408;2024-03-22T03:56:00;97760;;;12.8;48.9
23253;BME280;11795;47.054;15.408;2024-03-22T03:58:00;97750;;;12.9;49.0
23253;BME280;11795;47.054;15.408;2024-03-22T04:00:00;97760;;;12.9;49.0
23253;BME280;11795;47.054;15.408;2024-03-22T04:02:00;97760;;;12.8;49.7
23253;BME280;11795;47.054;15.408;2024-03-22T04:04:01;97760;;;12.7;50.0
23253;BME280;11795;47.054;15.408;2024-03-22T04:06:01;97750;;;12.5;50.6
23253;BME280;11795;47.054;15.408;2024-03-22T04:08:00;97750;;;12.6;50.8
23253;BME280;11795;47.054;15.408;2024-03-22T04:10:00;97760;;;12.4;51.2
23253;BME280;11795;47.054;15.408;2024-03-22T04:12:00;97750;;;12.4;51.6
23253;BME280;11795;47.054;15.408;2024-03-22T04:14:00;97750;;;12.4;51.3
23253;BME280;11795;47.054;15.408;2024-03-22T04:16:00;97750;;;12.2;51.9
23253;BME280;11795;47.054;15.408;2024-03-22T04:18:00;97750;;;12.4;51.7
23253;BME280;11795;47.054;15.408;2024-03-22T04:20:00;97750;;;12.2;51.9
23253;BME280;11795;47.054;15.408;2024-03-22T04:22:00;97760;;;12.1;52.2
23253;BME280;11795;47.054;15.408;2024-03-22T04:24:00;97760;;;12.2;52.1
23253;BME280;11795;47.054;15.408;2024-03-22T04:26:01;97750;;;12.1;52.4
23253;BME280;11795;47.054;15.408;2024-03-22T04:28:00;97750;;;12.1;52.5
23253;BME280;11795;47.054;15.408;2024-03-22T04:30:00;97750;;;12.1;52.8
23253;BME280;11795;47.054;15.408;2024-03-22T04:32:00;97750;;;12.0;53.1
23253;BME280;11795;47.054;15.408;2024-03-22T04:34:00;97750;;;12.1;53.0
23253;BME280;11795;47.054;15.408;2024-03-22T04:36:01;97750;;;11.9;53.4
23253;BME280;11795;47.054;15.408;2024-03-22T04:38:00;97750;;;12.0;53.5
23253;BME280;11795;47.054;15.408;2024-03-22T04:40:00;97740;;;11.7;53.9
23253;BME280;11795;47.054;15.408;2024-03-22T04:42:00;97750;;;11.6;54.2
23253;BME280;11795;47.054;15.408;2024-03-22T04:44:00;97750;;;11.7;54.0
23253;BME280;11795;47.054;15.408;2024-03-22T04:46:00;97750;;;11.5;54.4
23253;BME280;11795;47.054;15.408;2024-03-22T04:48:01;97750;;;11.7;54.2
23253;BME280;11795;47.054;15.408;2024-03-22T04:50:00;97760;;;11.6;54.0
23253;BME280;11795;47.054;15.408;2024-03-22T04:52:00;97760;;;11.5;54.4
23253;BME280;11795;47.054;15.408;2024-03-22T04:54:00;97760;;;11.6;54.0
23253;BME280;11795;47.054;15.408;2024-03-22T04:56:00;97760;;;11.5;54.3
23253;BME280;11795;47.054;15.408;2024-03-22T04:58:00;97760;;;11.6;54.0
23253;BME280;11795;47.054;15.408;2024-03-22T05:00:00;97760;;;11.5;54.0
23253;BME280;11795;47.054;15.408;2024-03-22T05:02:00;97760;;;11.3;54.5
23253;BME280;11795;47.054;15.408;2024-03-22T05:04:00;97770;;;11.4;54.3
23253;BME280;11795;47.054;15.408;2024-03-22T05:06:03;97770;;;11.2;54.8
23253;BME280;11795;47.054;15.408;2024-03-22T05:08:01;97760;;;11.4;54.6
23253;BME280;11795;47.054;15.408;2024-03-22T05:10:01;97760;;;11.3;54.7
23253;BME280;11795;47.054;15.408;2024-03-22T05:12:00;97760;;;11.2;55.0
23253;BME280;11795;47.054;15.408;2024-03-22T05:14:00;97760;;;11.3;54.7
23253;BME280;11795;47.054;15.408;2024-03-22T05:16:00;97760;;;11.1;55.2
23253;BME280;11795;47.054;15.408;2024-03-22T05:18:00;97760;;;11.3;54.7
23253;BME280;11795;47.054;15.408;2024-03-22T05:20:00;97760;;;11.2;54.8
23253;BME280;11795;47.054;15.408;2024-03-22T05:22:00;97770;;;11.0;55.4
23253;BME280;11795;47.054;15.408;2024-03-22T05:24:00;97760;;;11.2;55.0
23253;BME280;11795;47.054;15.408;2024-03-22T05:26:00;97760;;;11.1;55.2
23253;BME280;11795;47.054;15.408;2024-03-22T05:28:01;97770;;;11.3;55.1
23253;BME280;11795;47.054;15.408;2024-03-22T05:30:00;97770;;;11.1;55.2
23253;BME280;11795;47.054;15.408;2024-03-22T05:32:00;97770;;;11.2;55.2
23253;BME280;11795;47.054;15.408;2024-03-22T05:34:00;97760;;;11.3;54.8
23253;BME280;11795;47.054;15.408;2024-03-22T05:36:00;97760;;;11.2;55.0
23253;BME280;11795;47.054;15.408;2024-03-22T05:38:00;97760;;;11.4;54.8
23253;BME280;11795;47.054;15.408;2024-03-22T05:40:01;97770;;;11.5;54.3
23253;BME280;11795;47.054;15.408;2024-03-22T05:42:00;97760;;;11.5;54.1
23253;BME280;11795;47.054;15.408;2024-03-22T05:44:00;97770;;;11.7;54.2
23253;BME280;11795;47.054;15.408;2024-03-22T05:46:00;97770;;;11.7;54.0
23253;BME280;11795;47.054;15.408;2024-03-22T05:48:00;97770;;;11.8;53.7
23253;BME280;11795;47.054;15.408;2024-03-22T05:50:01;97760;;;11.8;53.5
23253;BME280;11795;47.054;15.408;2024-03-22T05:52:01;97760;;;11.8;53.7
23253;BME280;11795;47.054;15.408;2024-03-22T05:54:01;97760;;;12.0;54.0
23253;BME280;11795;47.054;15.408;2024-03-22T05:56:00;97760;;;12.1;54.6
23253;BME280;11795;47.054;15.408;2024-03-22T05:58:00;97750;;;12.3;52.8
23253;BME280;11795;47.054;15.408;2024-03-22T06:00:00;97750;;;12.5;52.7
23253;BME280;11795;47.054;15.408;2024-03-22T06:02:01;97750;;;12.6;52.2
23253;BME280;11795;47.054;15.408;2024-03-22T06:04:00;97750;;;12.9;50.8
23253;BME280;11795;47.054;15.408;2024-03-22T06:06:00;97750;;;12.9;50.9
23253;BME280;11795;47.054;15.408;2024-03-22T06:08:01;97750;;;13.1;50.7
23253;BME280;11795;47.054;15.408;2024-03-22T06:10:00;97750;;;13.2;50.5
23253;BME280;11795;47.054;15.408;2024-03-22T06:12:01;97750;;;13.3;50.1
23253;BME280;11795;47.054;15.408;2024-03-22T06:14:01;97750;;;13.5;49.4
23253;BME280;11795;47.054;15.408;2024-03-22T06:16:00;97750;;;13.4;49.2
23253;BME280;11795;47.054;15.408;2024-03-22T06:18:00;97750;;;13.6;49.0
23253;BME280;11795;47.054;15.408;2024-03-22T06:20:00;97750;;;13.7;49.1
23253;BME280;11795;47.054;15.408;2024-03-22T06:22:00;97750;;;13.8;49.2
23253;BME280;11795;47.054;15.408;2024-03-22T06:24:01;97750;;;14.1;48.8
23253;BME280;11795;47.054;15.408;2024-03-22T06:26:00;97740;;;14.1;48.9
23253;BME280;11795;47.054;15.408;2024-03-22T06:28:00;97740;;;14.4;48.2
23253;BME280;11795;47.054;15.408;2024-03-22T06:30:00;97740;;;14.5;48.0
23253;BME280;11795;47.054;15.408;2024-03-22T06:32:00;97740;;;14.6;48.2
23253;BME280;11795;47.054;15.408;2024-03-22T06:34:02;97740;;;15.0;47.4
23253;BME280;11795;47.054;15.408;2024-03-22T06:36:02;97730;;;15.0;47.1
23253;BME280;11795;47.054;15.408;2024-03-22T06:38:03;97730;;;15.2;47.0
23253;BME280;11795;47.054;15.408;2024-03-22T06:40:00;97730;;;15.4;46.0
23253;BME280;11795;47.054;15.408;2024-03-22T06:42:00;97730;;;15.4;46.6
23253;BME280;11795;47.054;15.408;2024-03-22T06:44:00;97730;;;15.7;45.9
23253;BME280;11795;47.054;15.408;2024-03-22T06:46:00;97730;;;15.7;45.8
23253;BME280;11795;47.054;15.408;2024-03-22T06:48:00;97730;;;15.9;46.0
23253;BME280;11795;47.054;15.408;2024-03-22T06:50:00;97730;;;16.1;45.2
23253;BME280;11795;47.054;15.408;2024-03-22T06:52:00;97730;;;16.2;45.0
23253;BME280;11795;47.054;15.408;2024-03-22T06:54:00;97730;;;16.4;44.0
23253;BME280;11795;47.054;15.408;2024-03-22T06:56:00;97730;;;16.4;44.9
23253;BME280;11795;47.054;15.408;2024-03-22T06:58:00;97730;;;16.7;44.6
23253;BME280;11795;47.054;15.408;2024-03-22T07:00:00;97730;;;16.8;43.8
23253;BME280;11795;47.054;15.408;2024-03-22T07:02:00;97730;;;16.9;43.9
23253;BME280;11795;47.054;15.408;2024-03-22T07:04:00;97730;;;17.2;43.4
23253;BME280;11795;47.054;15.408;2024-03-22T07:06:00;97740;;;17.2;42.7
23253;BME280;11795;47.054;15.408;2024-03-22T07:08:00;97740;;;17.3;42.9
23253;BME280;11795;47.054;15.408;2024-03-22T07:10:01;97730;;;17.5;42.4
23253;BME280;11795;47.054;15.408;2024-03-22T07:12:01;97730;;;17.5;42.4
23253;BME280;11795;47.054;15.408;2024-03-22T07:14:00;97730;;;17.7;41.6
23253;BME280;11795;47.054;15.408;2024-03-22T07:16:01;97730;;;17.7;41.4
23253;BME280;11795;47.054;15.408;2024-03-22T07:18:00;97730;;;17.8;41.4
23253;BME280;11795;47.054;15.408;2024-03-22T07:20:00;97720;;;18.0;40.8
23253;BME280;11795;47.054;15.408;2024-03-22T07:22:00;97720;;;18.0;40.8
23253;BME280;11795;47.054;15.408;2024-03-22T07:24:00;97720;;;18.2;40.1
23253;BME280;11795;47.054;15.408;2024-03-22T07:26:00;97720;;;18.1;39.5
23253;BME280;11795;47.054;15.408;2024-03-22T07:28:00;97720;;;18.2;40.4
23253;BME280;11795;47.054;15.408;2024-03-22T07:30:00;97720;;;18.4;39.7
23253;BME280;11795;47.054;15.408;2024-03-22T07:32:00;97730;;;18.4;39.7
23253;BME280;11795;47.054;15.408;2024-03-22T07:34:00;97730;;;18.7;38.7
23253;BME280;11795;47.054;15.408;2024-03-22T07:36:01;97730;;;18.7;38.9
23253;BME280;11795;47.054;15.408;2024-03-22T07:38:00;97730;;;18.8;39.2
23253;BME280;11795;47.054;15.408;2024-03-22T07:40:00;97720;;;18.9;37.7
23253;BME280;11795;47.054;15.408;2024-03-22T07:42:00;97720;;;18.9;38.0
23253;BME280;11795;47.054;15.408;2024-03-22T07:44:01;97720;;;19.0;37.8
23253;BME280;11795;47.054;15.408;2024-03-22T07:46:00;97720;;;19.0;37.2
23253;BME280;11795;47.054;15.408;2024-03-22T07:48:00;97720;;;19.1;36.9
23253;BME280;11795;47.054;15.408;2024-03-22T07:50:00;97720;;;19.2;35.8
23253;BME280;11795;47.054;15.408;2024-03-22T07:52:00;97710;;;19.1;35.5
23253;BME280;11795;47.054;15.408;2024-03-22T07:54:01;97710;;;19.4;35.3
23253;BME280;11795;47.054;15.408;2024-03-22T07:56:00;97710;;;19.3;34.8
23253;BME280;11795;47.054;15.408;2024-03-22T07:58:00;97710;;;19.2;35.4
23253;BME280;11795;47.054;15.408;2024-03-22T08:00:01;97710;;;19.4;35.8
23253;BME280;11795;47.054;15.408;2024-03-22T08:02:01;97710;;;19.3;35.7
23253;BME280;11795;47.054;15.408;2024-03-22T08:04:00;97710;;;19.6;35.7
23253;BME280;11795;47.054;15.408;2024-03-22T08:06:00;97710;;;19.7;36.2
23253;BME280;11795;47.054;15.408;2024-03-22T08:08:00;97700;;;19.6;35.3
23253;BME280;11795;47.054;15.408;2024-03-22T08:10:02;97700;;;19.9;35.6
23253;BME280;11795;47.054;15.408;2024-03-22T08:12:00;97710;;;19.8;35.1
23253;BME280;11795;47.054;15.408;2024-03-22T08:14:03;97710;;;19.8;34.0
23253;BME280;11795;47.054;15.408;2024-03-22T08:16:01;97700;;;19.6;34.5
23253;BME280;11795;47.054;15.408;2024-03-22T08:18:00;97700;;;19.7;34.3
23253;BME280;11795;47.054;15.408;2024-03-22T08:20:00;97700;;;19.9;34.6
23253;BME280;11795;47.054;15.408;2024-03-22T08:22:00;97700;;;20.0;35.5
23253;BME280;11795;47.054;15.408;2024-03-22T08:24:00;97700;;;20.3;34.3
23253;BME280;11795;47.054;15.408;2024-03-22T08:26:00;97690;;;20.3;33.8
23253;BME280;11795;47.054;15.408;2024-03-22T08:28:00;97700;;;20.3;34.4
23253;BME280;11795;47.054;15.408;2024-03-22T08:30:00;97700;;;20.5;33.4
23253;BME280;11795;47.054;15.408;2024-03-22T08:32:05;97700;;;20.6;34.4
23253;BME280;11795;47.054;15.408;2024-03-22T08:34:02;97700;;;20.8;34.6
23253;BME280;11795;47.054;15.408;2024-03-22T08:36:01;97690;;;20.8;33.9
23253;BME280;11795;47.054;15.408;2024-03-22T08:38:00;97700;;;20.8;34.4
23253;BME280;11795;47.054;15.408;2024-03-22T08:40:00;97700;;;21.1;33.9
23253;BME280;11795;47.054;15.408;2024-03-22T08:42:00;97700;;;21.1;33.9
23253;BME280;11795;47.054;15.408;2024-03-22T08:44:00;97700;;;21.1;33.6
23253;BME280;11795;47.054;15.408;2024-03-22T08:46:00;97690;;;20.9;33.7
23253;BME280;11795;47.054;15.408;2024-03-22T08:48:00;97700;;;20.7;33.8
23253;BME280;11795;47.054;15.408;2024-03-22T08:50:00;97690;;;20.6;34.1
23253;BME280;11795;47.054;15.408;2024-03-22T08:52:00;97690;;;20.4;34.1
23253;BME280;11795;47.054;15.408;2024-03-22T08:54:01;97690;;;20.4;34.1
23253;BME280;11795;47.054;15.408;2024-03-22T08:56:00;97680;;;20.2;34.2
23253;BME280;11795;47.054;15.408;2024-03-22T08:58:00;97680;;;20.3;34.9
23253;BME280;11795;47.054;15.408;2024-03-22T09:00:00;97680;;;20.5;33.7
23253;BME280;11795;47.054;15.408;2024-03-22T09:02:00;97670;;;20.6;33.4
23253;BME280;11795;47.054;15.408;2024-03-22T09:04:00;97670;;;20.6;34.1
23253;BME280;11795;47.054;15.408;2024-03-22T09:06:00;97670;;;19.9;34.1
23253;BME280;11795;47.054;15.408;2024-03-22T09:08:01;97670;;;20.2;34.9
23253;BME280;11795;47.054;15.408;2024-03-22T09:10:00;97660;;;20.6;34.2
23253;BME280;11795;47.054;15.408;2024-03-22T09:12:00;97670;;;20.6;33.3
23253;BME280;11795;47.054;15.408;2024-03-22T09:14:00;97670;;;20.8;34.0
23253;BME280;11795;47.054;15.408;2024-03-22T09:16:01;97670;;;21.0;33.8
23253;BME280;11795;47.054;15.408;2024-03-22T09:18:00;97670;;;21.1;33.5
23253;BME280;11795;47.054;15.408;2024-03-22T09:20:01;97660;;;21.4;33.0
23253;BME280;11795;47.054;15.408;2024-03-22T09:22:00;97650;;;21.6;32.7
23253;BME280;11795;47.054;15.408;2024-03-22T09:24:03;97650;;;21.9;31.7
23253;BME280;11795;47.054;15.408;2024-03-22T09:26:00;97650;;;22.2;32.7
23253;BME280;11795;47.054;15.408;2024-03-22T09:28:01;97640;;;22.3;31.1
23253;BME280;11795;47.054;15.408;2024-03-22T09:30:01;97640;;;22.6;30.8
23253;BME280;11795;47.054;15.408;2024-03-22T09:32:00;97640;;;22.7;30.1
23253;BME280;11795;47.054;15.408;2024-03-22T09:34:01;97630;;;22.9;30.6
23253;BME280;11795;47.054;15.408;2024-03-22T09:36:00;97640;;;22.8;28.9
23253;BME280;11795;47.054;15.408;2024-03-22T09:38:01;97630;;;22.6;30.0
23253;BME280;11795;47.054;15.408;2024-03-22T09:40:01;97630;;;22.6;30.5
23253;BME280;11795;47.054;15.408;2024-03-22T09:42:05;97630;;;22.8;29.9
23253;BME280;11795;47.054;15.408;2024-03-22T09:44:02;97630;;;22.7;30.0
23253;BME280;11795;47.054;15.408;2024-03-22T09:46:01;97630;;;22.7;30.4
23253;BME280;11795;47.054;15.408;2024-03-22T09:48:02;97630;;;22.7;31.5
23253;BME280;11795;47.054;15.408;2024-03-22T09:50:01;97630;;;22.8;31.1
23253;BME280;11795;47.054;15.408;2024-03-22T09:52:01;97630;;;22.7;31.3
23253;BME280;11795;47.054;15.408;2024-03-22T09:54:01;97630;;;22.8;30.5
23253;BME280;11795;47.054;15.408;2024-03-22T09:56:02;97630;;;22.7;29.4
23253;BME280;11795;47.054;15.408;2024-03-22T09:58:00;97620;;;22.1;30.2
23253;BME280;11795;47.054;15.408;2024-03-22T10:00:01;97610;;;22.1;30.6
23253;BME280;11795;47.054;15.408;2024-03-22T10:02:02;97610;;;22.4;29.7
23253;BME280;11795;47.054;15.408;2024-03-22T10:04:00;97610;;;22.6;29.7
23253;BME280;11795;47.054;15.408;2024-03-22T10:06:00;97610;;;22.6;29.0
23253;BME280;11795;47.054;15.408;2024-03-22T10:08:00;97610;;;22.4;28.9
23253;BME280;11795;47.054;15.408;2024-03-22T10:10:00;97610;;;22.2;29.4
23253;BME280;11795;47.054;15.408;2024-03-22T10:12:00;97610;;;22.1;29.9
23253;BME280;11795;47.054;15.408;2024-03-22T10:14:01;97600;;;22.0;29.1
23253;BME280;11795;47.054;15.408;2024-03-22T10:16:00;97600;;;21.8;29.9
23253;BME280;11795;47.054;15.408;2024-03-22T10:18:00;97600;;;21.9;29.9
23253;BME280;11795;47.054;15.408;2024-03-22T10:20:00;97600;;;22.0;29.4
23253;BME280;11795;47.054;15.408;2024-03-22T10:22:00;97600;;;21.9;29.2
23253;BME280;11795;47.054;15.408;2024-03-22T10:24:01;97600;;;21.9;29.5
23253;BME280;11795;47.054;15.408;2024-03-22T10:26:00;97590;;;21.9;29.8
23253;BME280;11795;47.054;15.408;2024-03-22T10:28:00;97590;;;21.2;30.2
23253;BME280;11795;47.054;15.408;2024-03-22T10:30:00;97590;;;21.5;30.9
23253;BME280;11795;47.054;15.408;2024-03-22T10:32:01;97580;;;21.6;30.7
23253;BME280;11795;47.054;15.408;2024-03-22T10:34:02;97580;;;21.6;30.5
23253;BME280;11795;47.054;15.408;2024-03-22T10:36:01;97580;;;21.5;30.5
23253;BME280;11795;47.054;15.408;2024-03-22T10:38:00;97580;;;21.7;30.2
23253;BME280;11795;47.054;15.408;2024-03-22T10:40:01;97580;;;22.1;30.3
23253;BME280;11795;47.054;15.408;2024-03-22T10:42:00;97570;;;22.1;30.3
23253;BME280;11795;47.054;15.408;2024-03-22T10:44:00;97570;;;22.1;29.8
23253;BME280;11795;47.054;15.408;2024-03-22T10:46:01;97560;;;22.1;29.3
23253;BME280;11795;47.054;15.408;2024-03-22T10:48:08;97560;;;22.1;29.8
23253;BME280;11795;47.054;15.408;2024-03-22T10:50:05;97560;;;22.4;29.0
23253;BME280;11795;47.054;15.408;2024-03-22T10:52:02;97560;;;22.3;28.7
23253;BME280;11795;47.054;15.408;2024-03-22T10:54:01;97560;;;22.1;28.9
23253;BME280;11795;47.054;15.408;2024-03-22T10:56:01;97560;;;22.2;29.0
23253;BME280;11795;47.054;15.408;2024-03-22T10:58:00;97550;;;22.4;29.4
23253;BME280;11795;47.054;15.408;2024-03-22T11:00:00;97540;;;22.8;29.4
23253;BME280;11795;47.054;15.408;2024-03-22T11:02:03;97540;;;22.9;30.0
23253;BME280;11795;47.054;15.408;2024-03-22T11:04:04;97540;;;22.6;28.0
23253;BME280;11795;47.054;15.408;2024-03-22T11:06:00;97540;;;22.5;28.0
23253;BME280;11795;47.054;15.408;2024-03-22T11:08:02;97540;;;21.7;28.9
23253;BME280;11795;47.054;15.408;2024-03-22T11:10:01;97540;;;21.2;29.8